sensor_id;sensor_type;location;lat;lon;timestamp;P1;durP1;ratioP1;P2;durP2;ratioP2
73113;SDS011;61301;51.956;5.876;2022-09-09T00:01:02;2.30;;;0.80;;
73113;SDS011;61301;51.956;5.876;2022-09-09T00:03:37;2.80;;;1.30;;
73113;SDS011;61301;51.956;5.876;2022-09-09T00:11:49;0.70;;;0.55;;
73113;SDS011;61301;51.956;5.876;2022-09-09T00:14:21;0.40;;;0.40;;
73113;SDS011;61301;51.956;5.876;2022-09-09T00:17:01;0.57;;;0.30;;
73113;SDS011;61301;51.956;5.876;2022-09-09T00:19:39;0.10;;;0.10;;
73113;SDS011;61301;51.956;5.876;2022-09-09T00:22:34;0.10;;;0.10;;
73113;SDS011;61301;51.956;5.876;2022-09-09T00:25:18;0.10;;;0.10;;
73113;SDS011;61301;51.956;5.876;2022-09-09T00:27:52;1.85;;;0.93;;
73113;SDS011;61301;51.956;5.876;2022-09-09T00:30:21;1.05;;;0.70;;
73113;SDS011;61301;51.956;5.876;2022-09-09T00:32:53;0.98;;;0.80;;
73113;SDS011;61301;51.956;5.876;2022-09-09T00:35:25;2.88;;;1.02;;
73113;SDS011;61301;51.956;5.876;2022-09-09T00:37:56;2.17;;;0.88;;
73113;SDS011;61301;51.956;5.876;2022-09-09T00:40:30;2.67;;;0.70;;
73113;SDS011;61301;51.956;5.876;2022-09-09T00:48:16;2.10;;;1.00;;
73113;SDS011;61301;51.956;5.876;2022-09-09T00:50:53;0.98;;;0.57;;
73113;SDS011;61301;51.956;5.876;2022-09-09T00:56:14;0.40;;;0.35;;
73113;SDS011;61301;51.956;5.876;2022-09-09T00:58:53;0.93;;;0.50;;
73113;SDS011;61301;51.956;5.876;2022-09-09T01:01:28;1.30;;;0.60;;
73113;SDS011;61301;51.956;5.876;2022-09-09T01:03:55;1.42;;;0.80;;
73113;SDS011;61301;51.956;5.876;2022-09-09T01:11:52;2.10;;;0.90;;
73113;SDS011;61301;51.956;5.876;2022-09-09T01:16:57;2.05;;;0.82;;
73113;SDS011;61301;51.956;5.876;2022-09-09T01:19:35;1.38;;;0.68;;
73113;SDS011;61301;51.956;5.876;2022-09-09T01:28:08;1.00;;;0.30;;
73113;SDS011;61301;51.956;5.876;2022-09-09T01:30:39;0.60;;;0.40;;
73113;SDS011;61301;51.956;5.876;2022-09-09T01:33:12;0.43;;;0.28;;
73113;SDS011;61301;51.956;5.876;2022-09-09T01:38:15;1.95;;;0.60;;
73113;SDS011;61301;51.956;5.876;2022-09-09T01:40:41;0.95;;;0.47;;
73113;SDS011;61301;51.956;5.876;2022-09-09T01:43:08;0.88;;;0.40;;
73113;SDS011;61301;51.956;5.876;2022-09-09T01:45:36;2.15;;;0.60;;
73113;SDS011;61301;51.956;5.876;2022-09-09T01:48:03;2.63;;;0.90;;
73113;SDS011;61301;51.956;5.876;2022-09-09T01:50:44;1.65;;;0.90;;
73113;SDS011;61301;51.956;5.876;2022-09-09T01:53:10;2.88;;;1.20;;
73113;SDS011;61301;51.956;5.876;2022-09-09T01:55:38;1.63;;;0.85;;
73113;SDS011;61301;51.956;5.876;2022-09-09T02:01:00;2.45;;;1.02;;
73113;SDS011;61301;51.956;5.876;2022-09-09T02:03:34;2.10;;;0.90;;
73113;SDS011;61301;51.956;5.876;2022-09-09T02:06:25;4.22;;;1.05;;
73113;SDS011;61301;51.956;5.876;2022-09-09T02:09:23;0.98;;;0.80;;
73113;SDS011;61301;51.956;5.876;2022-09-09T02:12:02;1.15;;;1.05;;
73113;SDS011;61301;51.956;5.876;2022-09-09T02:14:50;1.60;;;0.70;;
73113;SDS011;61301;51.956;5.876;2022-09-09T02:17:46;1.45;;;0.90;;
73113;SDS011;61301;51.956;5.876;2022-09-09T02:20:15;2.25;;;0.90;;
73113;SDS011;61301;51.956;5.876;2022-09-09T02:22:50;1.73;;;1.33;;
73113;SDS011;61301;51.956;5.876;2022-09-09T02:25:21;1.42;;;0.90;;
73113;SDS011;61301;51.956;5.876;2022-09-09T02:27:51;2.88;;;1.20;;
73113;SDS011;61301;51.956;5.876;2022-09-09T02:30:18;1.27;;;0.57;;
73113;SDS011;61301;51.956;5.876;2022-09-09T02:32:51;1.27;;;0.50;;
73113;SDS011;61301;51.956;5.876;2022-09-09T02:35:23;0.70;;;0.70;;
73113;SDS011;61301;51.956;5.876;2022-09-09T02:37:53;1.23;;;0.80;;
73113;SDS011;61301;51.956;5.876;2022-09-09T02:40:23;2.92;;;0.77;;
73113;SDS011;61301;51.956;5.876;2022-09-09T02:42:56;1.30;;;0.32;;
73113;SDS011;61301;51.956;5.876;2022-09-09T02:45:27;1.13;;;0.80;;
73113;SDS011;61301;51.956;5.876;2022-09-09T02:48:11;1.25;;;0.65;;
73113;SDS011;61301;51.956;5.876;2022-09-09T02:50:54;1.98;;;1.00;;
73113;SDS011;61301;51.956;5.876;2022-09-09T02:53:32;0.77;;;0.63;;
73113;SDS011;61301;51.956;5.876;2022-09-09T02:56:08;1.10;;;0.65;;
73113;SDS011;61301;51.956;5.876;2022-09-09T02:58:43;1.65;;;0.90;;
73113;SDS011;61301;51.956;5.876;2022-09-09T03:01:09;2.58;;;1.15;;
73113;SDS011;61301;51.956;5.876;2022-09-09T03:03:35;1.52;;;0.98;;
73113;SDS011;61301;51.956;5.876;2022-09-09T03:06:06;3.25;;;1.30;;
73113;SDS011;61301;51.956;5.876;2022-09-09T03:08:32;2.15;;;1.00;;
73113;SDS011;61301;51.956;5.876;2022-09-09T03:11:00;1.15;;;0.68;;
73113;SDS011;61301;51.956;5.876;2022-09-09T03:13:32;2.72;;;1.00;;
73113;SDS011;61301;51.956;5.876;2022-09-09T03:15:59;2.70;;;0.90;;
73113;SDS011;61301;51.956;5.876;2022-09-09T03:18:26;1.27;;;1.15;;
73113;SDS011;61301;51.956;5.876;2022-09-09T03:20:54;3.15;;;1.35;;
73113;SDS011;61301;51.956;5.876;2022-09-09T03:23:20;1.88;;;1.42;;
73113;SDS011;61301;51.956;5.876;2022-09-09T03:25:48;1.60;;;1.40;;
73113;SDS011;61301;51.956;5.876;2022-09-09T03:28:18;5.57;;;1.60;;
73113;SDS011;61301;51.956;5.876;2022-09-09T03:30:45;4.63;;;1.98;;
73113;SDS011;61301;51.956;5.876;2022-09-09T03:33:11;1.60;;;1.50;;
73113;SDS011;61301;51.956;5.876;2022-09-09T03:35:38;9.57;;;2.60;;
73113;SDS011;61301;51.956;5.876;2022-09-09T03:38:05;3.70;;;2.13;;
73113;SDS011;61301;51.956;5.876;2022-09-09T03:40:33;4.32;;;1.50;;
73113;SDS011;61301;51.956;5.876;2022-09-09T03:43:00;2.28;;;1.70;;
73113;SDS011;61301;51.956;5.876;2022-09-09T03:45:26;4.93;;;1.90;;
73113;SDS011;61301;51.956;5.876;2022-09-09T03:47:52;1.95;;;1.17;;
73113;SDS011;61301;51.956;5.876;2022-09-09T03:50:20;3.58;;;1.27;;
73113;SDS011;61301;51.956;5.876;2022-09-09T03:52:47;4.38;;;1.80;;
73113;SDS011;61301;51.956;5.876;2022-09-09T03:55:19;2.58;;;1.67;;
73113;SDS011;61301;51.956;5.876;2022-09-09T03:57:45;3.55;;;1.83;;
73113;SDS011;61301;51.956;5.876;2022-09-09T04:00:12;5.55;;;1.95;;
73113;SDS011;61301;51.956;5.876;2022-09-09T04:02:49;3.30;;;1.40;;
73113;SDS011;61301;51.956;5.876;2022-09-09T04:05:19;4.63;;;1.95;;
73113;SDS011;61301;51.956;5.876;2022-09-09T04:07:47;2.67;;;1.30;;
73113;SDS011;61301;51.956;5.876;2022-09-09T04:10:13;3.10;;;1.60;;
73113;SDS011;61301;51.956;5.876;2022-09-09T04:12:42;3.72;;;1.80;;
73113;SDS011;61301;51.956;5.876;2022-09-09T04:15:09;3.20;;;1.58;;
73113;SDS011;61301;51.956;5.876;2022-09-09T04:17:37;1.92;;;1.10;;
73113;SDS011;61301;51.956;5.876;2022-09-09T04:20:03;2.97;;;1.60;;
73113;SDS011;61301;51.956;5.876;2022-09-09T04:22:30;2.70;;;1.50;;
73113;SDS011;61301;51.956;5.876;2022-09-09T04:24:57;2.60;;;1.45;;
73113;SDS011;61301;51.956;5.876;2022-09-09T04:27:23;4.85;;;2.05;;
73113;SDS011;61301;51.956;5.876;2022-09-09T04:29:49;4.43;;;2.22;;
73113;SDS011;61301;51.956;5.876;2022-09-09T04:32:16;2.67;;;1.13;;
73113;SDS011;61301;51.956;5.876;2022-09-09T04:34:42;3.88;;;1.92;;
73113;SDS011;61301;51.956;5.876;2022-09-09T04:37:08;3.00;;;1.20;;
73113;SDS011;61301;51.956;5.876;2022-09-09T04:39:37;2.58;;;1.50;;
73113;SDS011;61301;51.956;5.876;2022-09-09T04:42:05;2.28;;;1.30;;
73113;SDS011;61301;51.956;5.876;2022-09-09T04:44:31;2.80;;;1.27;;
73113;SDS011;61301;51.956;5.876;2022-09-09T04:46:58;6.13;;;1.52;;
73113;SDS011;61301;51.956;5.876;2022-09-09T04:49:25;5.05;;;1.73;;
73113;SDS011;61301;51.956;5.876;2022-09-09T04:51:51;6.88;;;1.67;;
73113;SDS011;61301;51.956;5.876;2022-09-09T04:54:18;2.97;;;1.23;;
73113;SDS011;61301;51.956;5.876;2022-09-09T04:56:45;3.75;;;1.50;;
73113;SDS011;61301;51.956;5.876;2022-09-09T04:59:11;3.22;;;1.00;;
73113;SDS011;61301;51.956;5.876;2022-09-09T05:01:46;3.13;;;1.80;;
73113;SDS011;61301;51.956;5.876;2022-09-09T05:04:12;5.22;;;1.88;;
73113;SDS011;61301;51.956;5.876;2022-09-09T05:06:38;3.28;;;1.38;;
73113;SDS011;61301;51.956;5.876;2022-09-09T05:09:05;4.15;;;2.13;;
73113;SDS011;61301;51.956;5.876;2022-09-09T05:11:32;1.77;;;1.30;;
73113;SDS011;61301;51.956;5.876;2022-09-09T05:14:14;5.47;;;1.73;;
73113;SDS011;61301;51.956;5.876;2022-09-09T05:16:40;5.80;;;1.50;;
73113;SDS011;61301;51.956;5.876;2022-09-09T05:19:07;5.22;;;1.60;;
73113;SDS011;61301;51.956;5.876;2022-09-09T05:21:42;7.63;;;1.70;;
73113;SDS011;61301;51.956;5.876;2022-09-09T05:24:08;4.10;;;1.92;;
73113;SDS011;61301;51.956;5.876;2022-09-09T05:26:34;4.20;;;1.55;;
73113;SDS011;61301;51.956;5.876;2022-09-09T05:29:01;3.95;;;2.03;;
73113;SDS011;61301;51.956;5.876;2022-09-09T05:31:29;6.00;;;2.22;;
73113;SDS011;61301;51.956;5.876;2022-09-09T05:33:57;2.78;;;1.70;;
73113;SDS011;61301;51.956;5.876;2022-09-09T05:36:24;6.30;;;1.67;;
73113;SDS011;61301;51.956;5.876;2022-09-09T05:38:54;4.97;;;1.75;;
73113;SDS011;61301;51.956;5.876;2022-09-09T05:41:20;5.75;;;2.33;;
73113;SDS011;61301;51.956;5.876;2022-09-09T05:43:48;4.45;;;1.35;;
73113;SDS011;61301;51.956;5.876;2022-09-09T05:46:19;6.70;;;2.03;;
73113;SDS011;61301;51.956;5.876;2022-09-09T05:48:48;5.25;;;1.70;;
73113;SDS011;61301;51.956;5.876;2022-09-09T05:51:17;3.55;;;1.25;;
73113;SDS011;61301;51.956;5.876;2022-09-09T05:53:46;4.85;;;1.75;;
73113;SDS011;61301;51.956;5.876;2022-09-09T05:56:20;7.13;;;1.58;;
73113;SDS011;61301;51.956;5.876;2022-09-09T05:58:48;3.22;;;1.83;;
73113;SDS011;61301;51.956;5.876;2022-09-09T06:01:19;8.93;;;2.17;;
73113;SDS011;61301;51.956;5.876;2022-09-09T06:03:47;6.65;;;1.90;;
73113;SDS011;61301;51.956;5.876;2022-09-09T06:06:16;6.65;;;2.33;;
73113;SDS011;61301;51.956;5.876;2022-09-09T06:08:47;7.47;;;1.95;;
73113;SDS011;61301;51.956;5.876;2022-09-09T06:11:17;5.00;;;1.75;;
73113;SDS011;61301;51.956;5.876;2022-09-09T06:13:48;6.88;;;1.85;;
73113;SDS011;61301;51.956;5.876;2022-09-09T06:16:19;7.10;;;2.47;;
73113;SDS011;61301;51.956;5.876;2022-09-09T06:18:49;7.97;;;2.22;;
73113;SDS011;61301;51.956;5.876;2022-09-09T06:21:20;7.03;;;1.85;;
73113;SDS011;61301;51.956;5.876;2022-09-09T06:23:48;7.75;;;2.00;;
73113;SDS011;61301;51.956;5.876;2022-09-09T06:26:15;7.38;;;2.05;;
73113;SDS011;61301;51.956;5.876;2022-09-09T06:28:47;4.32;;;1.42;;
73113;SDS011;61301;51.956;5.876;2022-09-09T06:31:19;6.53;;;1.77;;
73113;SDS011;61301;51.956;5.876;2022-09-09T06:33:50;2.63;;;1.30;;
73113;SDS011;61301;51.956;5.876;2022-09-09T06:36:22;7.97;;;1.98;;
73113;SDS011;61301;51.956;5.876;2022-09-09T06:38:52;5.80;;;2.13;;
73113;SDS011;61301;51.956;5.876;2022-09-09T06:41:19;7.18;;;1.58;;
73113;SDS011;61301;51.956;5.876;2022-09-09T06:43:48;3.63;;;1.63;;
73113;SDS011;61301;51.956;5.876;2022-09-09T06:46:16;5.03;;;1.58;;
73113;SDS011;61301;51.956;5.876;2022-09-09T06:48:46;7.20;;;2.10;;
73113;SDS011;61301;51.956;5.876;2022-09-09T06:51:15;5.40;;;1.48;;
73113;SDS011;61301;51.956;5.876;2022-09-09T06:53:47;7.07;;;1.63;;
73113;SDS011;61301;51.956;5.876;2022-09-09T06:58:56;4.00;;;1.58;;
73113;SDS011;61301;51.956;5.876;2022-09-09T07:01:35;6.05;;;1.90;;
73113;SDS011;61301;51.956;5.876;2022-09-09T07:04:05;9.60;;;1.55;;
73113;SDS011;61301;51.956;5.876;2022-09-09T07:06:36;6.90;;;1.77;;
73113;SDS011;61301;51.956;5.876;2022-09-09T07:09:05;5.07;;;1.35;;
73113;SDS011;61301;51.956;5.876;2022-09-09T07:11:37;6.10;;;1.67;;
73113;SDS011;61301;51.956;5.876;2022-09-09T07:14:09;8.38;;;1.92;;
73113;SDS011;61301;51.956;5.876;2022-09-09T07:16:38;9.43;;;2.13;;
73113;SDS011;61301;51.956;5.876;2022-09-09T07:19:05;9.27;;;2.20;;
73113;SDS011;61301;51.956;5.876;2022-09-09T07:21:31;5.93;;;1.73;;
73113;SDS011;61301;51.956;5.876;2022-09-09T07:23:58;4.57;;;1.55;;
73113;SDS011;61301;51.956;5.876;2022-09-09T07:26:26;5.60;;;1.30;;
73113;SDS011;61301;51.956;5.876;2022-09-09T07:28:55;8.73;;;1.92;;
73113;SDS011;61301;51.956;5.876;2022-09-09T07:31:27;14.38;;;2.92;;
73113;SDS011;61301;51.956;5.876;2022-09-09T07:33:56;5.25;;;2.08;;
73113;SDS011;61301;51.956;5.876;2022-09-09T07:36:24;6.53;;;1.95;;
73113;SDS011;61301;51.956;5.876;2022-09-09T07:39:00;8.82;;;2.40;;
73113;SDS011;61301;51.956;5.876;2022-09-09T07:41:35;8.68;;;2.35;;
73113;SDS011;61301;51.956;5.876;2022-09-09T07:44:16;5.20;;;1.80;;
73113;SDS011;61301;51.956;5.876;2022-09-09T07:46:47;5.00;;;1.70;;
73113;SDS011;61301;51.956;5.876;2022-09-09T07:49:17;6.07;;;1.80;;
73113;SDS011;61301;51.956;5.876;2022-09-09T07:51:45;5.70;;;1.80;;
73113;SDS011;61301;51.956;5.876;2022-09-09T07:54:15;6.65;;;1.63;;
73113;SDS011;61301;51.956;5.876;2022-09-09T07:56:46;6.53;;;1.77;;
73113;SDS011;61301;51.956;5.876;2022-09-09T07:59:12;5.25;;;1.27;;
73113;SDS011;61301;51.956;5.876;2022-09-09T08:01:42;10.07;;;2.10;;
73113;SDS011;61301;51.956;5.876;2022-09-09T08:04:15;8.65;;;2.00;;
73113;SDS011;61301;51.956;5.876;2022-09-09T08:06:47;7.10;;;1.95;;
73113;SDS011;61301;51.956;5.876;2022-09-09T08:09:16;5.50;;;1.38;;
73113;SDS011;61301;51.956;5.876;2022-09-09T08:11:43;7.28;;;1.60;;
73113;SDS011;61301;51.956;5.876;2022-09-09T08:14:11;7.85;;;1.48;;
73113;SDS011;61301;51.956;5.876;2022-09-09T08:16:39;4.57;;;1.30;;
73113;SDS011;61301;51.956;5.876;2022-09-09T08:19:10;6.90;;;1.13;;
73113;SDS011;61301;51.956;5.876;2022-09-09T08:21:39;6.93;;;1.70;;
73113;SDS011;61301;51.956;5.876;2022-09-09T08:24:07;4.88;;;1.55;;
73113;SDS011;61301;51.956;5.876;2022-09-09T08:26:35;6.57;;;1.52;;
73113;SDS011;61301;51.956;5.876;2022-09-09T08:29:03;6.93;;;1.85;;
73113;SDS011;61301;51.956;5.876;2022-09-09T08:31:33;6.15;;;1.30;;
73113;SDS011;61301;51.956;5.876;2022-09-09T08:34:01;5.35;;;1.50;;
73113;SDS011;61301;51.956;5.876;2022-09-09T08:36:34;5.20;;;1.42;;
73113;SDS011;61301;51.956;5.876;2022-09-09T08:39:04;11.45;;;2.50;;
73113;SDS011;61301;51.956;5.876;2022-09-09T08:58:21;4.07;;;1.38;;
73113;SDS011;61301;51.956;5.876;2022-09-09T09:11:23;7.30;;;1.30;;
73113;SDS011;61301;51.956;5.876;2022-09-09T09:13:52;4.53;;;1.33;;
73113;SDS011;61301;51.956;5.876;2022-09-09T09:18:59;5.10;;;1.30;;
73113;SDS011;61301;51.956;5.876;2022-09-09T09:24:37;7.60;;;1.52;;
73113;SDS011;61301;51.956;5.876;2022-09-09T09:27:49;5.43;;;1.52;;
73113;SDS011;61301;51.956;5.876;2022-09-09T09:29:58;5.40;;;1.20;;
73113;SDS011;61301;51.956;5.876;2022-09-09T09:32:28;6.90;;;1.42;;
73113;SDS011;61301;51.956;5.876;2022-09-09T09:34:58;7.97;;;1.30;;
73113;SDS011;61301;51.956;5.876;2022-09-09T09:37:28;5.53;;;1.30;;
73113;SDS011;61301;51.956;5.876;2022-09-09T09:40:07;4.60;;;0.93;;
73113;SDS011;61301;51.956;5.876;2022-09-09T09:42:47;6.78;;;1.83;;
73113;SDS011;61301;51.956;5.876;2022-09-09T09:48:06;4.28;;;1.10;;
73113;SDS011;61301;51.956;5.876;2022-09-09T09:50:57;3.38;;;1.20;;
73113;SDS011;61301;51.956;5.876;2022-09-09T09:53:28;6.38;;;1.40;;
73113;SDS011;61301;51.956;5.876;2022-09-09T09:55:58;4.75;;;1.20;;
73113;SDS011;61301;51.956;5.876;2022-09-09T09:58:30;6.15;;;1.75;;
73113;SDS011;61301;51.956;5.876;2022-09-09T10:01:00;6.65;;;1.42;;
73113;SDS011;61301;51.956;5.876;2022-09-09T10:03:29;7.72;;;1.38;;
73113;SDS011;61301;51.956;5.876;2022-09-09T10:05:59;2.85;;;0.88;;
73113;SDS011;61301;51.956;5.876;2022-09-09T10:08:26;8.40;;;1.80;;
73113;SDS011;61301;51.956;5.876;2022-09-09T10:13:39;5.43;;;0.95;;
73113;SDS011;61301;51.956;5.876;2022-09-09T10:19:18;7.28;;;1.17;;
73113;SDS011;61301;51.956;5.876;2022-09-09T10:22:02;4.88;;;1.50;;
73113;SDS011;61301;51.956;5.876;2022-09-09T10:27:32;9.23;;;1.63;;
73113;SDS011;61301;51.956;5.876;2022-09-09T10:30:35;4.88;;;0.82;;
73113;SDS011;61301;51.956;5.876;2022-09-09T10:36:00;6.85;;;1.60;;
73113;SDS011;61301;51.956;5.876;2022-09-09T10:38:52;6.53;;;1.60;;
73113;SDS011;61301;51.956;5.876;2022-09-09T10:44:18;7.82;;;1.50;;
73113;SDS011;61301;51.956;5.876;2022-09-09T10:55:39;4.55;;;0.98;;
73113;SDS011;61301;51.956;5.876;2022-09-09T10:58:10;7.30;;;1.58;;
73113;SDS011;61301;51.956;5.876;2022-09-09T11:00:44;4.38;;;1.30;;
73113;SDS011;61301;51.956;5.876;2022-09-09T11:03:17;5.10;;;1.30;;
73113;SDS011;61301;51.956;5.876;2022-09-09T11:05:49;5.25;;;1.48;;
73113;SDS011;61301;51.956;5.876;2022-09-09T11:08:25;4.28;;;0.85;;
73113;SDS011;61301;51.956;5.876;2022-09-09T11:11:04;5.68;;;1.15;;
73113;SDS011;61301;51.956;5.876;2022-09-09T11:16:19;5.60;;;1.45;;
73113;SDS011;61301;51.956;5.876;2022-09-09T11:18:57;7.95;;;1.73;;
73113;SDS011;61301;51.956;5.876;2022-09-09T11:21:29;4.85;;;1.27;;
73113;SDS011;61301;51.956;5.876;2022-09-09T11:24:03;6.55;;;1.20;;
73113;SDS011;61301;51.956;5.876;2022-09-09T11:26:41;6.25;;;1.73;;
73113;SDS011;61301;51.956;5.876;2022-09-09T11:35:20;10.85;;;1.42;;
73113;SDS011;61301;51.956;5.876;2022-09-09T11:43:03;5.82;;;1.52;;
73113;SDS011;61301;51.956;5.876;2022-09-09T11:45:51;1.88;;;1.02;;
73113;SDS011;61301;51.956;5.876;2022-09-09T11:48:32;4.90;;;0.95;;
73113;SDS011;61301;51.956;5.876;2022-09-09T11:51:02;5.00;;;1.20;;
73113;SDS011;61301;51.956;5.876;2022-09-09T11:53:30;5.75;;;1.45;;
73113;SDS011;61301;51.956;5.876;2022-09-09T11:56:01;6.45;;;1.23;;
73113;SDS011;61301;51.956;5.876;2022-09-09T11:58:35;4.00;;;1.20;;
73113;SDS011;61301;51.956;5.876;2022-09-09T12:01:25;5.43;;;1.45;;
73113;SDS011;61301;51.956;5.876;2022-09-09T12:03:55;4.22;;;1.10;;
73113;SDS011;61301;51.956;5.876;2022-09-09T12:09:28;3.65;;;1.20;;
73113;SDS011;61301;51.956;5.876;2022-09-09T12:12:21;6.18;;;1.00;;
73113;SDS011;61301;51.956;5.876;2022-09-09T12:17:28;3.95;;;1.08;;
73113;SDS011;61301;51.956;5.876;2022-09-09T12:20:00;3.72;;;0.95;;
73113;SDS011;61301;51.956;5.876;2022-09-09T12:33:35;5.80;;;1.30;;
73113;SDS011;61301;51.956;5.876;2022-09-09T12:36:03;4.05;;;1.45;;
73113;SDS011;61301;51.956;5.876;2022-09-09T12:38:38;2.53;;;0.73;;
73113;SDS011;61301;51.956;5.876;2022-09-09T12:41:15;3.75;;;1.02;;
73113;SDS011;61301;51.956;5.876;2022-09-09T12:43:48;3.47;;;1.55;;
73113;SDS011;61301;51.956;5.876;2022-09-09T12:46:28;2.78;;;0.90;;
73113;SDS011;61301;51.956;5.876;2022-09-09T12:52:03;5.05;;;1.30;;
73113;SDS011;61301;51.956;5.876;2022-09-09T12:54:36;4.68;;;1.10;;
73113;SDS011;61301;51.956;5.876;2022-09-09T12:57:04;3.58;;;1.00;;
73113;SDS011;61301;51.956;5.876;2022-09-09T12:59:38;3.67;;;1.35;;
73113;SDS011;61301;51.956;5.876;2022-09-09T13:04:46;3.70;;;0.98;;
73113;SDS011;61301;51.956;5.876;2022-09-09T13:07:13;3.67;;;1.10;;
73113;SDS011;61301;51.956;5.876;2022-09-09T13:09:39;1.90;;;0.77;;
73113;SDS011;61301;51.956;5.876;2022-09-09T13:12:06;1.73;;;0.75;;
73113;SDS011;61301;51.956;5.876;2022-09-09T13:14:46;2.67;;;1.20;;
73113;SDS011;61301;51.956;5.876;2022-09-09T13:17:17;3.60;;;1.00;;
73113;SDS011;61301;51.956;5.876;2022-09-09T13:19:46;4.82;;;1.55;;
73113;SDS011;61301;51.956;5.876;2022-09-09T13:22:35;3.83;;;1.42;;
73113;SDS011;61301;51.956;5.876;2022-09-09T13:25:01;4.00;;;1.00;;
73113;SDS011;61301;51.956;5.876;2022-09-09T13:27:35;4.75;;;1.50;;
73113;SDS011;61301;51.956;5.876;2022-09-09T13:35:35;4.55;;;1.55;;
73113;SDS011;61301;51.956;5.876;2022-09-09T13:38:15;3.97;;;1.38;;
73113;SDS011;61301;51.956;5.876;2022-09-09T13:40:54;4.18;;;1.40;;
73113;SDS011;61301;51.956;5.876;2022-09-09T13:43:23;3.90;;;0.98;;
73113;SDS011;61301;51.956;5.876;2022-09-09T13:46:01;4.13;;;1.13;;
73113;SDS011;61301;51.956;5.876;2022-09-09T13:48:29;4.22;;;1.30;;
73113;SDS011;61301;51.956;5.876;2022-09-09T13:50:58;4.15;;;1.17;;
73113;SDS011;61301;51.956;5.876;2022-09-09T13:53:30;2.65;;;1.20;;
73113;SDS011;61301;51.956;5.876;2022-09-09T13:55:57;2.55;;;1.05;;
73113;SDS011;61301;51.956;5.876;2022-09-09T13:58:24;5.15;;;1.35;;
73113;SDS011;61301;51.956;5.876;2022-09-09T14:00:51;3.33;;;1.00;;
73113;SDS011;61301;51.956;5.876;2022-09-09T14:03:18;3.88;;;1.08;;
73113;SDS011;61301;51.956;5.876;2022-09-09T14:05:45;2.70;;;0.90;;
73113;SDS011;61301;51.956;5.876;2022-09-09T14:08:16;3.65;;;0.80;;
73113;SDS011;61301;51.956;5.876;2022-09-09T14:10:48;3.67;;;1.20;;
73113;SDS011;61301;51.956;5.876;2022-09-09T14:13:14;2.63;;;0.63;;
73113;SDS011;61301;51.956;5.876;2022-09-09T14:15:40;2.00;;;0.80;;
73113;SDS011;61301;51.956;5.876;2022-09-09T14:18:08;3.67;;;1.10;;
73113;SDS011;61301;51.956;5.876;2022-09-09T14:20:37;3.55;;;0.80;;
73113;SDS011;61301;51.956;5.876;2022-09-09T14:23:03;1.98;;;0.82;;
73113;SDS011;61301;51.956;5.876;2022-09-09T14:25:29;3.40;;;1.15;;
73113;SDS011;61301;51.956;5.876;2022-09-09T14:27:54;3.70;;;0.80;;
73113;SDS011;61301;51.956;5.876;2022-09-09T14:30:21;2.15;;;0.77;;
73113;SDS011;61301;51.956;5.876;2022-09-09T14:32:47;2.42;;;1.00;;
73113;SDS011;61301;51.956;5.876;2022-09-09T14:35:13;2.85;;;1.00;;
73113;SDS011;61301;51.956;5.876;2022-09-09T14:37:39;5.38;;;1.38;;
73113;SDS011;61301;51.956;5.876;2022-09-09T14:40:05;4.05;;;0.75;;
73113;SDS011;61301;51.956;5.876;2022-09-09T14:42:32;3.38;;;0.98;;
73113;SDS011;61301;51.956;5.876;2022-09-09T14:44:58;1.70;;;0.75;;
73113;SDS011;61301;51.956;5.876;2022-09-09T14:47:24;3.22;;;1.10;;
73113;SDS011;61301;51.956;5.876;2022-09-09T14:49:51;3.20;;;1.15;;
73113;SDS011;61301;51.956;5.876;2022-09-09T14:52:18;3.65;;;1.13;;
73113;SDS011;61301;51.956;5.876;2022-09-09T14:54:44;7.07;;;1.38;;
73113;SDS011;61301;51.956;5.876;2022-09-09T14:57:10;3.50;;;1.10;;
73113;SDS011;61301;51.956;5.876;2022-09-09T14:59:36;5.57;;;1.33;;
73113;SDS011;61301;51.956;5.876;2022-09-09T15:02:02;5.05;;;1.15;;
73113;SDS011;61301;51.956;5.876;2022-09-09T15:04:29;2.92;;;0.77;;
73113;SDS011;61301;51.956;5.876;2022-09-09T15:06:55;5.20;;;1.65;;
73113;SDS011;61301;51.956;5.876;2022-09-09T15:09:21;2.40;;;1.05;;
73113;SDS011;61301;51.956;5.876;2022-09-09T15:11:48;2.70;;;0.98;;
73113;SDS011;61301;51.956;5.876;2022-09-09T15:14:14;4.68;;;0.95;;
73113;SDS011;61301;51.956;5.876;2022-09-09T15:16:40;3.40;;;0.82;;
73113;SDS011;61301;51.956;5.876;2022-09-09T15:19:06;2.45;;;0.60;;
73113;SDS011;61301;51.956;5.876;2022-09-09T15:21:34;2.60;;;0.80;;
73113;SDS011;61301;51.956;5.876;2022-09-09T15:24:01;3.40;;;0.80;;
73113;SDS011;61301;51.956;5.876;2022-09-09T15:26:28;3.40;;;0.98;;
73113;SDS011;61301;51.956;5.876;2022-09-09T15:28:55;4.15;;;1.23;;
73113;SDS011;61301;51.956;5.876;2022-09-09T15:31:25;1.77;;;0.57;;
73113;SDS011;61301;51.956;5.876;2022-09-09T15:33:54;3.60;;;0.70;;
73113;SDS011;61301;51.956;5.876;2022-09-09T15:38:55;2.75;;;0.70;;
73113;SDS011;61301;51.956;5.876;2022-09-09T15:41:22;2.97;;;0.95;;
73113;SDS011;61301;51.956;5.876;2022-09-09T15:43:49;3.80;;;1.17;;
73113;SDS011;61301;51.956;5.876;2022-09-09T15:48:42;4.05;;;1.05;;
73113;SDS011;61301;51.956;5.876;2022-09-09T15:51:09;3.67;;;1.00;;
73113;SDS011;61301;51.956;5.876;2022-09-09T15:53:37;4.63;;;1.23;;
73113;SDS011;61301;51.956;5.876;2022-09-09T15:56:05;6.85;;;1.15;;
73113;SDS011;61301;51.956;5.876;2022-09-09T15:58:32;5.10;;;1.48;;
73113;SDS011;61301;51.956;5.876;2022-09-09T16:01:02;3.65;;;1.08;;
73113;SDS011;61301;51.956;5.876;2022-09-09T16:03:33;4.32;;;0.70;;
73113;SDS011;61301;51.956;5.876;2022-09-09T16:06:00;3.90;;;1.00;;
73113;SDS011;61301;51.956;5.876;2022-09-09T16:08:35;2.95;;;0.60;;
73113;SDS011;61301;51.956;5.876;2022-09-09T16:11:04;0.98;;;0.40;;
73113;SDS011;61301;51.956;5.876;2022-09-09T16:13:33;1.40;;;0.28;;
73113;SDS011;61301;51.956;5.876;2022-09-09T16:16:00;1.85;;;0.40;;
73113;SDS011;61301;51.956;5.876;2022-09-09T16:18:32;1.42;;;0.55;;
73113;SDS011;61301;51.956;5.876;2022-09-09T16:21:02;2.88;;;0.82;;
73113;SDS011;61301;51.956;5.876;2022-09-09T16:23:31;1.52;;;0.75;;
73113;SDS011;61301;51.956;5.876;2022-09-09T16:25:58;0.75;;;0.43;;
73113;SDS011;61301;51.956;5.876;2022-09-09T16:28:24;2.45;;;0.50;;
73113;SDS011;61301;51.956;5.876;2022-09-09T16:30:50;1.15;;;0.47;;
73113;SDS011;61301;51.956;5.876;2022-09-09T16:33:16;2.92;;;0.43;;
73113;SDS011;61301;51.956;5.876;2022-09-09T16:35:42;1.75;;;0.55;;
73113;SDS011;61301;51.956;5.876;2022-09-09T16:38:08;2.75;;;0.95;;
73113;SDS011;61301;51.956;5.876;2022-09-09T16:40:35;1.65;;;0.60;;
73113;SDS011;61301;51.956;5.876;2022-09-09T16:43:03;1.83;;;0.82;;
73113;SDS011;61301;51.956;5.876;2022-09-09T16:45:29;1.90;;;0.50;;
73113;SDS011;61301;51.956;5.876;2022-09-09T16:47:55;2.17;;;0.52;;
73113;SDS011;61301;51.956;5.876;2022-09-09T16:50:21;1.15;;;0.28;;
73113;SDS011;61301;51.956;5.876;2022-09-09T16:52:47;1.58;;;0.80;;
73113;SDS011;61301;51.956;5.876;2022-09-09T16:55:13;1.40;;;0.60;;
73113;SDS011;61301;51.956;5.876;2022-09-09T16:57:39;1.38;;;0.60;;
73113;SDS011;61301;51.956;5.876;2022-09-09T17:00:07;1.52;;;0.40;;
73113;SDS011;61301;51.956;5.876;2022-09-09T17:02:34;2.60;;;0.90;;
73113;SDS011;61301;51.956;5.876;2022-09-09T17:04:59;2.78;;;0.63;;
73113;SDS011;61301;51.956;5.876;2022-09-09T17:07:25;1.52;;;0.30;;
73113;SDS011;61301;51.956;5.876;2022-09-09T17:09:52;0.70;;;0.28;;
73113;SDS011;61301;51.956;5.876;2022-09-09T17:12:19;2.08;;;0.70;;
73113;SDS011;61301;51.956;5.876;2022-09-09T17:14:46;2.33;;;0.57;;
73113;SDS011;61301;51.956;5.876;2022-09-09T17:17:12;1.33;;;0.35;;
73113;SDS011;61301;51.956;5.876;2022-09-09T17:19:38;1.40;;;0.60;;
73113;SDS011;61301;51.956;5.876;2022-09-09T17:22:04;0.82;;;0.43;;
73113;SDS011;61301;51.956;5.876;2022-09-09T17:24:30;1.48;;;0.50;;
73113;SDS011;61301;51.956;5.876;2022-09-09T17:26:56;1.15;;;0.55;;
73113;SDS011;61301;51.956;5.876;2022-09-09T17:29:22;1.20;;;0.50;;